Time;durP1;ratioP1;P1;durP2;ratioP2;P2;SDS_P1;SDS_P2;PMS_P1;PMS_P2;Temp;Humidity;BMP_temperature;BMP_pressure;BME280_temperature;BME280_humidity;BME280_pressure;Samples;Min_cycle;Max_cycle;Signal;HPM_P1;HPM_P2
2023/09/26 00:01:28;;;;;;;14.63;8.30;;;;;;;;;;4978468;28;20069;-75
2023/09/26 00:03:54;;;;;;;10.50;7.90;;;;;;;;;;4978815;28;20137;-75
2023/09/26 00:06:24;;;;;;;9.25;7.50;;;;;;;;;;4980015;28;20574;-75
2023/09/26 00:08:52;;;;;;;13.93;8.00;;;;;;;;;;4980396;28;20042;-75
2023/09/26 00:11:19;;;;;;;12.02;7.95;;;;;;;;;;4978516;28;20523;-76
2023/09/26 00:13:45;;;;;;;9.82;7.97;;;;;;;;;;4977904;28;20042;-76
2023/09/26 00:16:11;;;;;;;11.73;7.95;;;;;;;;;;4978372;28;20054;-75
2023/09/26 00:18:40;;;;;;;9.50;8.02;;;;;;;;;;4978251;28;20080;-74
2023/09/26 00:21:10;;;;;;;11.90;7.68;;;;;;;;;;4979874;28;20046;-74
2023/09/26 00:23:36;;;;;;;9.15;7.68;;;;;;;;;;4978668;28;20096;-75
2023/09/26 00:26:02;;;;;;;11.27;8.00;;;;;;;;;;4961811;28;20054;-75
2023/09/26 00:28:28;;;;;;;13.23;8.82;;;;;;;;;;4961833;28;20082;-75
2023/09/26 00:30:56;;;;;;;11.77;8.38;;;;;;;;;;4978768;28;20089;-75
2023/09/26 00:33:22;;;;;;;11.07;8.15;;;;;;;;;;4979263;28;20042;-75
2023/09/26 00:35:47;;;;;;;14.82;8.15;;;;;;;;;;4977205;28;20148;-75
2023/09/26 00:38:13;;;;;;;11.40;8.50;;;;;;;;;;4978352;28;20050;-75
2023/09/26 00:40:42;;;;;;;12.63;8.60;;;;;;;;;;4980089;28;20064;-73
2023/09/26 00:43:08;;;;;;;12.20;8.18;;;;;;;;;;4978201;28;20045;-73
2023/09/26 00:45:35;;;;;;;15.32;8.35;;;;;;;;;;4961806;28;20058;-74
2023/09/26 00:48:01;;;;;;;12.35;8.00;;;;;;;;;;4977721;28;20892;-74
2023/09/26 00:50:27;;;;;;;9.95;8.07;;;;;;;;;;4978616;28;20742;-73
2023/09/26 00:52:53;;;;;;;11.43;8.52;;;;;;;;;;4978280;28;20038;-73
2023/09/26 00:55:22;;;;;;;11.77;8.80;;;;;;;;;;4978284;28;20105;-73
2023/09/26 00:57:48;;;;;;;12.18;8.18;;;;;;;;;;4977418;28;21057;-74
2023/09/26 01:00:18;;;;;;;12.52;7.68;;;;;;;;;;4979641;28;20530;-74
2023/09/26 01:02:43;;;;;;;9.68;7.90;;;;;;;;;;4978478;28;20038;-74
2023/09/26 01:05:09;;;;;;;13.00;8.13;;;;;;;;;;4978276;28;20062;-74
2023/09/26 01:07:35;;;;;;;14.32;8.73;;;;;;;;;;4993454;28;20052;-73
2023/09/26 01:10:03;;;;;;;16.15;9.13;;;;;;;;;;4964948;28;20042;-73
2023/09/26 01:12:29;;;;;;;11.65;7.88;;;;;;;;;;4975547;28;20042;-74
2023/09/26 01:14:55;;;;;;;12.90;8.73;;;;;;;;;;4993862;28;20116;-74
2023/09/26 01:17:21;;;;;;;13.50;8.52;;;;;;;;;;4992115;28;21111;-74
2023/09/26 01:19:46;;;;;;;11.25;8.90;;;;;;;;;;4976639;28;20457;-74
2023/09/26 01:22:16;;;;;;;11.07;7.32;;;;;;;;;;4977835;28;20058;-74
2023/09/26 01:24:43;;;;;;;12.80;8.40;;;;;;;;;;4993132;28;20073;-74
2023/09/26 01:27:12;;;;;;;14.57;8.30;;;;;;;;;;4977445;28;20042;-74
2023/09/26 01:29:37;;;;;;;10.68;8.10;;;;;;;;;;4976348;28;20141;-74
2023/09/26 01:32:03;;;;;;;12.02;8.32;;;;;;;;;;4975818;28;20081;-74
2023/09/26 01:34:29;;;;;;;13.05;7.68;;;;;;;;;;4976134;28;20137;-74
2023/09/26 01:36:54;;;;;;;14.52;9.23;;;;;;;;;;4993417;28;20042;-73
2023/09/26 01:39:20;;;;;;;13.48;7.78;;;;;;;;;;4979097;28;20081;-74
2023/09/26 01:41:46;;;;;;;11.23;7.68;;;;;;;;;;4977316;28;20647;-75
2023/09/26 01:44:12;;;;;;;14.38;8.65;;;;;;;;;;4977510;28;20039;-74
2023/09/26 01:46:37;;;;;;;12.02;8.90;;;;;;;;;;4985242;28;20041;-75
2023/09/26 01:49:02;;;;;;;13.50;8.85;;;;;;;;;;4997495;28;20406;-74
2023/09/26 01:51:28;;;;;;;12.80;9.10;;;;;;;;;;4983135;28;20077;-74
2023/09/26 01:53:53;;;;;;;11.65;8.30;;;;;;;;;;4994892;28;20046;-74
2023/09/26 01:56:19;;;;;;;13.18;9.13;;;;;;;;;;4978957;28;20399;-75
2023/09/26 01:58:44;;;;;;;10.98;8.57;;;;;;;;;;4972457;28;20042;-74
2023/09/26 02:01:10;;;;;;;13.85;8.90;;;;;;;;;;4961673;28;20038;-74
2023/09/26 02:03:36;;;;;;;10.23;8.15;;;;;;;;;;4961043;28;20101;-74
2023/09/26 02:06:01;;;;;;;10.65;7.78;;;;;;;;;;4978881;28;20042;-74
2023/09/26 02:08:26;;;;;;;15.05;7.43;;;;;;;;;;4979655;28;20089;-72
2023/09/26 02:10:52;;;;;;;14.25;8.05;;;;;;;;;;4980652;28;20743;-73
2023/09/26 02:13:17;;;;;;;12.50;8.35;;;;;;;;;;4996992;28;20053;-73
2023/09/26 02:15:43;;;;;;;14.43;9.50;;;;;;;;;;4980588;28;20052;-73
2023/09/26 02:18:08;;;;;;;13.35;8.82;;;;;;;;;;4979948;28;20049;-73
2023/09/26 02:20:34;;;;;;;14.10;8.80;;;;;;;;;;4980012;28;20057;-73
2023/09/26 02:22:59;;;;;;;12.82;8.23;;;;;;;;;;4980644;28;20050;-74
2023/09/26 02:25:25;;;;;;;13.57;8.48;;;;;;;;;;4980525;28;20048;-72
2023/09/26 02:27:51;;;;;;;10.35;7.20;;;;;;;;;;4979504;28;20038;-73
2023/09/26 02:30:22;;;;;;;15.63;8.73;;;;;;;;;;4997381;28;20065;-73
2023/09/26 02:32:48;;;;;;;16.42;8.90;;;;;;;;;;4998154;28;20038;-73
2023/09/26 02:35:16;;;;;;;12.20;8.35;;;;;;;;;;4980370;28;20045;-74
2023/09/26 02:37:42;;;;;;;12.88;8.70;;;;;;;;;;4997869;28;20779;-75
2023/09/26 02:40:11;;;;;;;13.00;9.02;;;;;;;;;;4979866;28;20140;-75
2023/09/26 02:42:43;;;;;;;17.27;10.73;;;;;;;;;;4995874;28;20033;-74
2023/09/26 02:45:09;;;;;;;17.27;11.50;;;;;;;;;;4980157;28;20053;-76
2023/09/26 02:47:35;;;;;;;18.52;11.15;;;;;;;;;;4965043;28;20057;-77
2023/09/26 02:50:00;;;;;;;14.82;10.32;;;;;;;;;;4978666;28;20538;-76
2023/09/26 02:52:26;;;;;;;15.45;10.25;;;;;;;;;;4992569;28;20038;-74
2023/09/26 02:54:52;;;;;;;19.05;11.00;;;;;;;;;;4976933;28;20158;-74
2023/09/26 02:57:18;;;;;;;16.05;10.52;;;;;;;;;;4964043;28;20050;-75
2023/09/26 02:59:44;;;;;;;16.98;11.15;;;;;;;;;;4996513;28;20046;-75
2023/09/26 03:02:09;;;;;;;17.67;12.70;;;;;;;;;;4996290;28;20050;-74
2023/09/26 03:04:34;;;;;;;19.70;12.55;;;;;;;;;;4979385;28;20450;-74
2023/09/26 03:07:00;;;;;;;18.55;12.80;;;;;;;;;;4981755;28;20138;-75
2023/09/26 03:09:25;;;;;;;20.73;13.20;;;;;;;;;;4980017;28;20047;-74
2023/09/26 03:11:51;;;;;;;18.33;12.18;;;;;;;;;;4979831;28;20034;-74
2023/09/26 03:14:20;;;;;;;17.98;10.73;;;;;;;;;;4979811;28;20081;-74
2023/09/26 03:16:45;;;;;;;19.73;10.55;;;;;;;;;;4980082;28;20034;-75
2023/09/26 03:19:11;;;;;;;21.13;12.43;;;;;;;;;;4981863;28;20105;-75
2023/09/26 03:21:37;;;;;;;19.65;11.02;;;;;;;;;;4979841;28;20085;-74
2023/09/26 03:24:03;;;;;;;18.55;11.73;;;;;;;;;;4979970;28;20076;-74
2023/09/26 03:26:28;;;;;;;20.05;11.75;;;;;;;;;;4979140;28;20061;-74
2023/09/26 03:28:54;;;;;;;19.35;11.32;;;;;;;;;;4996590;28;20046;-73
2023/09/26 03:31:25;;;;;;;21.55;12.48;;;;;;;;;;4979478;28;20046;-72
2023/09/26 03:33:51;;;;;;;18.20;11.38;;;;;;;;;;4981698;28;20054;-74
2023/09/26 03:36:17;;;;;;;24.45;11.90;;;;;;;;;;4982022;28;20075;-74
2023/09/26 03:38:43;;;;;;;18.42;11.25;;;;;;;;;;5000263;28;20042;-74
2023/09/26 03:41:08;;;;;;;21.13;11.90;;;;;;;;;;4999188;28;20048;-74
2023/09/26 03:43:33;;;;;;;18.90;11.68;;;;;;;;;;4998607;28;20418;-74
2023/09/26 03:46:04;;;;;;;18.00;11.43;;;;;;;;;;4996879;28;20042;-74
2023/09/26 03:48:31;;;;;;;18.58;11.88;;;;;;;;;;4996931;28;20053;-74
2023/09/26 03:51:09;;;;;;;17.85;11.05;;;;;;;;;;4997537;28;20037;-73
2023/09/26 03:53:35;;;;;;;15.07;10.57;;;;;;;;;;4999676;28;20056;-74
2023/09/26 03:56:00;;;;;;;11.75;8.50;;;;;;;;;;4998112;28;20042;-74
2023/09/26 03:58:25;;;;;;;13.18;9.27;;;;;;;;;;4980812;28;20056;-75
2023/09/26 04:00:51;;;;;;;14.70;9.10;;;;;;;;;;5014328;28;20038;-73
2023/09/26 04:03:16;;;;;;;11.52;7.78;;;;;;;;;;4981428;28;20050;-75
2023/09/26 04:05:46;;;;;;;10.57;7.35;;;;;;;;;;4998446;28;20142;-75
2023/09/26 04:08:13;;;;;;;11.45;7.30;;;;;;;;;;4998082;28;20073;-74
2023/09/26 04:10:39;;;;;;;12.90;7.82;;;;;;;;;;4999504;28;20057;-75
2023/09/26 04:13:05;;;;;;;12.32;7.97;;;;;;;;;;5000269;28;20042;-74
2023/09/26 04:15:30;;;;;;;14.85;8.02;;;;;;;;;;4999112;28;20498;-74
2023/09/26 04:17:56;;;;;;;11.57;8.20;;;;;;;;;;4997160;28;20056;-75
2023/09/26 04:20:22;;;;;;;11.30;7.80;;;;;;;;;;4981918;28;20054;-74
2023/09/26 04:22:48;;;;;;;13.38;8.35;;;;;;;;;;4981438;28;20046;-75
2023/09/26 04:25:14;;;;;;;15.10;9.48;;;;;;;;;;4999320;28;20081;-75
2023/09/26 04:27:39;;;;;;;10.68;7.03;;;;;;;;;;4999270;28;20125;-75
2023/09/26 04:30:07;;;;;;;10.70;6.50;;;;;;;;;;5014351;28;20497;-75
2023/09/26 04:32:32;;;;;;;11.82;6.13;;;;;;;;;;4997093;28;20046;-75
2023/09/26 04:34:58;;;;;;;19.73;7.10;;;;;;;;;;5015020;28;20044;-75
2023/09/26 04:37:23;;;;;;;10.02;7.05;;;;;;;;;;4998436;28;20076;-74
2023/09/26 04:39:48;;;;;;;10.95;6.60;;;;;;;;;;4998431;28;20046;-76
2023/09/26 04:42:14;;;;;;;38.75;6.35;;;;;;;;;;4998385;28;20052;-75
2023/09/26 04:44:39;;;;;;;11.27;6.93;;;;;;;;;;4980638;28;20877;-74
2023/09/26 04:47:05;;;;;;;28.58;6.97;;;;;;;;;;4994189;28;20108;-74
2023/09/26 04:49:32;;;;;;;8.90;6.00;;;;;;;;;;4995662;28;20045;-74
2023/09/26 04:51:57;;;;;;;6.75;5.50;;;;;;;;;;4995431;28;20105;-74
2023/09/26 04:54:23;;;;;;;8.50;5.90;;;;;;;;;;4995481;28;20037;-74
2023/09/26 04:56:48;;;;;;;8.10;5.43;;;;;;;;;;4996703;28;20624;-74
2023/09/26 04:59:13;;;;;;;7.53;5.75;;;;;;;;;;4996675;28;20109;-74
2023/09/26 05:01:39;;;;;;;7.32;5.38;;;;;;;;;;5013514;28;20731;-74
2023/09/26 05:04:05;;;;;;;5.93;4.85;;;;;;;;;;5012356;28;20055;-74
2023/09/26 05:06:30;;;;;;;8.20;4.97;;;;;;;;;;4995996;28;20129;-74
2023/09/26 05:08:56;;;;;;;6.93;4.97;;;;;;;;;;4998659;28;20037;-75
2023/09/26 05:11:21;;;;;;;6.53;5.35;;;;;;;;;;4991297;28;20026;-74
2023/09/26 05:13:47;;;;;;;7.82;5.15;;;;;;;;;;4992802;28;21038;-75
2023/09/26 05:16:14;;;;;;;6.85;5.57;;;;;;;;;;5007403;28;20078;-74
2023/09/26 05:18:39;;;;;;;5.45;4.93;;;;;;;;;;4995128;28;20050;-75
2023/09/26 05:21:09;;;;;;;5.43;4.72;;;;;;;;;;4995628;28;20128;-75
2023/09/26 05:23:35;;;;;;;5.57;5.00;;;;;;;;;;4996123;28;20062;-75
2023/09/26 05:26:05;;;;;;;5.28;4.78;;;;;;;;;;4996750;28;20041;-76
2023/09/26 05:28:31;;;;;;;5.05;4.38;;;;;;;;;;4994983;28;20111;-75
2023/09/26 05:30:56;;;;;;;7.63;5.50;;;;;;;;;;5011513;28;21270;-75
2023/09/26 05:33:21;;;;;;;7.90;5.30;;;;;;;;;;4993660;28;20466;-75
2023/09/26 05:35:47;;;;;;;6.55;5.85;;;;;;;;;;4996293;28;20176;-75
2023/09/26 05:38:12;;;;;;;6.93;5.95;;;;;;;;;;5012793;28;20462;-75
2023/09/26 05:40:38;;;;;;;6.90;5.47;;;;;;;;;;4998270;28;20048;-75
2023/09/26 05:43:03;;;;;;;5.47;4.90;;;;;;;;;;4998803;28;20042;-75
2023/09/26 05:45:29;;;;;;;5.65;5.05;;;;;;;;;;4997367;28;20060;-74
2023/09/26 05:47:54;;;;;;;4.68;4.28;;;;;;;;;;4994773;28;20526;-75
2023/09/26 05:50:20;;;;;;;4.80;4.40;;;;;;;;;;4997358;28;20065;-75
2023/09/26 05:52:45;;;;;;;6.43;4.75;;;;;;;;;;4998450;28;20614;-75
2023/09/26 05:55:10;;;;;;;6.53;4.03;;;;;;;;;;4995865;28;20080;-75
2023/09/26 05:57:36;;;;;;;4.70;3.90;;;;;;;;;;4998794;28;20099;-78
2023/09/26 06:00:05;;;;;;;4.13;3.65;;;;;;;;;;4997937;28;20511;-78
2023/09/26 06:02:36;;;;;;;3.70;3.35;;;;;;;;;;4997723;28;20045;-77
2023/09/26 06:05:01;;;;;;;4.00;3.55;;;;;;;;;;5012610;28;20093;-77
2023/09/26 06:07:27;;;;;;;3.38;3.08;;;;;;;;;;5012075;28;20049;-77
2023/09/26 06:09:52;;;;;;;3.67;3.38;;;;;;;;;;5011498;28;20491;-77
2023/09/26 06:12:18;;;;;;;4.00;3.53;;;;;;;;;;4995451;28;20133;-77
2023/09/26 06:14:46;;;;;;;3.45;3.08;;;;;;;;;;4999764;28;20394;-77
2023/09/26 06:17:11;;;;;;;4.10;3.70;;;;;;;;;;4996854;28;20042;-78
2023/09/26 06:19:37;;;;;;;4.18;3.78;;;;;;;;;;5012694;28;20046;-77
2023/09/26 06:22:02;;;;;;;6.18;4.10;;;;;;;;;;4995454;28;20463;-78
2023/09/26 06:24:28;;;;;;;4.95;3.78;;;;;;;;;;4999257;28;20046;-78
2023/09/26 06:26:53;;;;;;;3.70;3.40;;;;;;;;;;4996224;28;20108;-78
2023/09/26 06:29:19;;;;;;;3.95;3.25;;;;;;;;;;4997570;28;20415;-75
2023/09/26 06:31:45;;;;;;;3.60;3.30;;;;;;;;;;5000302;28;20045;-75
2023/09/26 06:34:10;;;;;;;4.38;3.40;;;;;;;;;;4993880;28;21081;-77
2023/09/26 06:36:37;;;;;;;3.60;3.30;;;;;;;;;;4999562;28;20141;-78
2023/09/26 06:39:02;;;;;;;3.97;3.30;;;;;;;;;;5001566;28;20045;-74
2023/09/26 06:41:28;;;;;;;3.50;2.97;;;;;;;;;;5006086;28;20077;-75
2023/09/26 06:43:53;;;;;;;4.18;3.30;;;;;;;;;;5004654;28;20046;-76
2023/09/26 06:46:18;;;;;;;3.67;2.60;;;;;;;;;;5003822;28;20821;-75
2023/09/26 06:48:44;;;;;;;3.00;2.70;;;;;;;;;;5017594;28;20057;-76
2023/09/26 06:51:10;;;;;;;3.55;2.95;;;;;;;;;;4999712;28;20040;-76
2023/09/26 06:53:36;;;;;;;3.17;2.40;;;;;;;;;;5001071;28;20041;-76
2023/09/26 06:56:06;;;;;;;4.95;2.50;;;;;;;;;;5015414;28;20049;-75
2023/09/26 06:58:33;;;;;;;4.05;3.00;;;;;;;;;;5000227;28;20527;-74
2023/09/26 07:00:58;;;;;;;5.38;2.80;;;;;;;;;;4998402;28;20096;-75
2023/09/26 07:03:27;;;;;;;3.35;2.58;;;;;;;;;;5000949;28;20555;-74
2023/09/26 07:05:53;;;;;;;3.17;2.88;;;;;;;;;;5013781;28;20042;-75
2023/09/26 07:08:18;;;;;;;5.07;3.90;;;;;;;;;;4999982;28;20050;-74
2023/09/26 07:10:43;;;;;;;6.65;3.40;;;;;;;;;;5000646;28;20050;-74
2023/09/26 07:13:09;;;;;;;3.33;3.03;;;;;;;;;;5001288;28;20038;-75
2023/09/26 07:15:34;;;;;;;4.22;2.78;;;;;;;;;;5000270;28;20096;-75
2023/09/26 07:18:05;;;;;;;3.10;2.80;;;;;;;;;;4999766;28;20049;-75
2023/09/26 07:20:30;;;;;;;3.13;2.83;;;;;;;;;;5015682;28;20038;-75
2023/09/26 07:22:56;;;;;;;2.85;2.63;;;;;;;;;;5001667;28;20411;-75
2023/09/26 07:25:21;;;;;;;3.72;2.85;;;;;;;;;;5001236;28;20046;-76
2023/09/26 07:27:46;;;;;;;2.55;2.35;;;;;;;;;;4997760;28;20041;-76
2023/09/26 07:30:12;;;;;;;2.50;2.30;;;;;;;;;;4999540;28;20050;-76
2023/09/26 07:32:38;;;;;;;4.22;2.72;;;;;;;;;;4999575;28;20103;-74
2023/09/26 07:35:04;;;;;;;3.60;2.40;;;;;;;;;;5001294;28;20107;-76
2023/09/26 07:37:31;;;;;;;2.38;2.00;;;;;;;;;;5015827;28;20052;-74
2023/09/26 07:39:57;;;;;;;2.63;2.05;;;;;;;;;;4996587;28;20088;-75
2023/09/26 07:42:23;;;;;;;2.58;2.25;;;;;;;;;;5000181;28;20133;-74
2023/09/26 07:44:48;;;;;;;2.65;2.00;;;;;;;;;;4999381;28;20054;-76
2023/09/26 07:47:13;;;;;;;2.30;2.10;;;;;;;;;;4999888;28;20414;-75
2023/09/26 07:49:41;;;;;;;2.78;1.92;;;;;;;;;;4998716;28;20050;-76
2023/09/26 07:52:07;;;;;;;4.90;2.13;;;;;;;;;;4998962;28;20049;-75
2023/09/26 07:54:33;;;;;;;2.30;2.05;;;;;;;;;;5014733;28;20187;-75
2023/09/26 07:56:58;;;;;;;2.17;1.80;;;;;;;;;;4999085;28;20034;-75
2023/09/26 07:59:24;;;;;;;2.10;1.58;;;;;;;;;;5002251;28;20071;-76
2023/09/26 08:01:50;;;;;;;2.63;1.73;;;;;;;;;;4997317;28;20053;-75
2023/09/26 08:04:15;;;;;;;2.10;1.90;;;;;;;;;;5000572;28;20525;-74
2023/09/26 08:06:41;;;;;;;1.50;1.40;;;;;;;;;;4997755;28;20174;-74
2023/09/26 08:09:06;;;;;;;1.98;1.85;;;;;;;;;;5002980;28;20057;-73
2023/09/26 08:11:32;;;;;;;2.70;1.80;;;;;;;;;;5000120;28;20065;-75
2023/09/26 08:13:57;;;;;;;2.08;1.80;;;;;;;;;;5015521;28;20056;-74
2023/09/26 08:16:23;;;;;;;2.08;1.98;;;;;;;;;;4999937;28;20507;-76
2023/09/26 08:18:50;;;;;;;2.30;1.98;;;;;;;;;;4999183;28;20049;-75
2023/09/26 08:21:16;;;;;;;2.40;2.10;;;;;;;;;;4999925;28;20100;-74
2023/09/26 08:23:41;;;;;;;2.38;2.00;;;;;;;;;;4998015;28;20072;-76
2023/09/26 08:26:11;;;;;;;2.45;2.17;;;;;;;;;;4998828;28;20049;-74
2023/09/26 08:28:37;;;;;;;4.03;2.33;;;;;;;;;;5000065;28;20102;-74
2023/09/26 08:31:05;;;;;;;2.35;2.15;;;;;;;;;;5000589;28;20048;-76
2023/09/26 08:33:31;;;;;;;2.70;2.10;;;;;;;;;;4999126;28;20049;-74
2023/09/26 08:35:56;;;;;;;2.95;2.35;;;;;;;;;;4998563;28;20045;-73
2023/09/26 08:38:22;;;;;;;6.10;2.38;;;;;;;;;;5002934;28;20050;-73
2023/09/26 08:40:51;;;;;;;2.28;2.08;;;;;;;;;;5000558;28;20055;-76
2023/09/26 08:43:25;;;;;;;4.38;2.00;;;;;;;;;;4998555;28;20042;-76
2023/09/26 08:45:52;;;;;;;2.65;2.10;;;;;;;;;;4995282;28;20038;-76
2023/09/26 08:48:18;;;;;;;2.30;2.15;;;;;;;;;;4999996;28;20100;-73
2023/09/26 08:50:44;;;;;;;2.03;1.83;;;;;;;;;;4997546;28;20144;-73
2023/09/26 08:53:10;;;;;;;2.75;1.80;;;;;;;;;;4999102;28;20574;-73
2023/09/26 08:55:38;;;;;;;1.92;1.77;;;;;;;;;;4997956;28;20052;-74
2023/09/26 08:58:04;;;;;;;2.13;1.92;;;;;;;;;;4999837;28;20041;-73
2023/09/26 09:00:30;;;;;;;3.30;2.30;;;;;;;;;;4997787;28;20402;-74
2023/09/26 09:02:55;;;;;;;2.10;1.90;;;;;;;;;;5013130;28;20084;-74
2023/09/26 09:05:22;;;;;;;4.30;2.08;;;;;;;;;;4998957;28;20107;-74
2023/09/26 09:07:48;;;;;;;2.85;2.13;;;;;;;;;;4978941;28;20514;-74
2023/09/26 09:10:17;;;;;;;5.47;2.28;;;;;;;;;;4997990;28;20454;-73
2023/09/26 09:12:47;;;;;;;2.15;1.77;;;;;;;;;;4996647;28;20634;-72
2023/09/26 09:15:15;;;;;;;3.10;2.28;;;;;;;;;;4996016;28;20038;-74
2023/09/26 09:17:42;;;;;;;2.30;2.10;;;;;;;;;;4994847;28;20049;-75
2023/09/26 09:20:09;;;;;;;2.60;2.40;;;;;;;;;;4999044;28;20552;-73
2023/09/26 09:22:35;;;;;;;5.35;2.30;;;;;;;;;;4981660;28;20127;-73
2023/09/26 09:25:01;;;;;;;2.88;2.60;;;;;;;;;;4996477;28;20136;-74
2023/09/26 09:27:38;;;;;;;3.25;2.83;;;;;;;;;;4997599;28;20871;-73
2023/09/26 09:30:08;;;;;;;3.80;2.63;;;;;;;;;;4997223;28;20045;-73
2023/09/26 09:32:35;;;;;;;4.20;2.60;;;;;;;;;;4998548;28;20081;-73
2023/09/26 09:35:02;;;;;;;2.35;2.15;;;;;;;;;;4997075;28;20082;-73
2023/09/26 09:37:28;;;;;;;4.20;2.33;;;;;;;;;;4998484;28;20117;-73
2023/09/26 09:39:53;;;;;;;2.58;2.13;;;;;;;;;;4997720;28;20531;-72
2023/09/26 09:42:19;;;;;;;2.55;2.35;;;;;;;;;;4998392;28;20038;-74
2023/09/26 09:44:44;;;;;;;2.20;1.90;;;;;;;;;;4996473;28;20562;-77
2023/09/26 09:47:12;;;;;;;2.60;2.40;;;;;;;;;;4996013;28;20519;-75
2023/09/26 09:49:41;;;;;;;3.15;2.85;;;;;;;;;;5011741;28;20050;-73
2023/09/26 09:52:09;;;;;;;2.17;2.08;;;;;;;;;;4997271;28;20533;-75
2023/09/26 09:54:39;;;;;;;2.38;2.17;;;;;;;;;;4998641;28;20050;-74
2023/09/26 09:57:10;;;;;;;3.47;2.53;;;;;;;;;;4995669;28;20069;-75
2023/09/26 09:59:38;;;;;;;2.42;2.22;;;;;;;;;;4997029;28;20064;-75
2023/09/26 10:02:05;;;;;;;2.60;2.40;;;;;;;;;;4996396;28;21204;-75
2023/09/26 10:04:33;;;;;;;4.53;2.40;;;;;;;;;;4999784;28;20431;-73
2023/09/26 10:07:00;;;;;;;3.28;2.97;;;;;;;;;;5002501;28;20104;-74
2023/09/26 10:09:26;;;;;;;2.80;2.50;;;;;;;;;;5005365;28;20050;-74
2023/09/26 10:11:54;;;;;;;6.32;2.05;;;;;;;;;;4999337;28;20050;-74
2023/09/26 10:14:21;;;;;;;2.78;2.30;;;;;;;;;;5001657;28;20053;-75
2023/09/26 10:16:47;;;;;;;2.50;2.30;;;;;;;;;;5017494;28;20049;-75
2023/09/26 10:19:14;;;;;;;3.35;2.80;;;;;;;;;;5000071;28;20042;-74
2023/09/26 10:21:41;;;;;;;4.93;3.10;;;;;;;;;;4996125;28;20187;-73
2023/09/26 10:24:09;;;;;;;5.15;2.55;;;;;;;;;;4998739;28;20042;-73
2023/09/26 10:26:49;;;;;;;3.42;2.53;;;;;;;;;;5000054;28;20076;-70
2023/09/26 10:29:14;;;;;;;4.43;2.72;;;;;;;;;;5002064;28;20501;-74
2023/09/26 10:31:41;;;;;;;2.50;2.30;;;;;;;;;;4999051;28;20044;-74
2023/09/26 10:34:07;;;;;;;3.05;2.75;;;;;;;;;;4998100;28;20041;-74
2023/09/26 10:36:37;;;;;;;4.28;2.80;;;;;;;;;;4999427;28;20055;-73
2023/09/26 10:39:07;;;;;;;3.55;2.47;;;;;;;;;;4998523;28;20604;-72
2023/09/26 10:41:33;;;;;;;4.15;2.53;;;;;;;;;;5001167;28;20042;-72
2023/09/26 10:43:59;;;;;;;3.60;2.38;;;;;;;;;;4998812;28;20484;-73
2023/09/26 10:46:25;;;;;;;2.78;2.58;;;;;;;;;;5000143;28;20091;-73
2023/09/26 10:48:50;;;;;;;3.97;2.70;;;;;;;;;;5001330;28;20050;-73
2023/09/26 10:51:17;;;;;;;3.15;2.50;;;;;;;;;;5001122;28;20057;-74
2023/09/26 10:53:44;;;;;;;4.70;2.55;;;;;;;;;;5000156;28;20050;-75
2023/09/26 10:56:10;;;;;;;5.95;2.55;;;;;;;;;;4999376;28;20562;-74
2023/09/26 10:58:35;;;;;;;3.40;2.70;;;;;;;;;;5001212;28;20050;-73
2023/09/26 11:01:01;;;;;;;2.15;1.95;;;;;;;;;;5001192;28;20517;-75
2023/09/26 11:03:28;;;;;;;3.10;2.35;;;;;;;;;;5001885;28;20100;-73
2023/09/26 11:05:55;;;;;;;2.20;2.00;;;;;;;;;;4999974;28;20538;-73
2023/09/26 11:08:22;;;;;;;2.90;2.20;;;;;;;;;;4999656;28;20056;-74
2023/09/26 11:10:48;;;;;;;2.30;2.10;;;;;;;;;;5000879;28;20124;-75
2023/09/26 11:13:15;;;;;;;4.93;2.35;;;;;;;;;;4998547;28;20061;-75
2023/09/26 11:15:41;;;;;;;3.08;2.08;;;;;;;;;;5001111;28;20140;-75
2023/09/26 11:18:13;;;;;;;4.90;2.10;;;;;;;;;;4999371;28;20177;-74
2023/09/26 11:20:40;;;;;;;5.53;2.33;;;;;;;;;;5014769;28;20042;-72
2023/09/26 11:23:05;;;;;;;3.03;2.17;;;;;;;;;;5000585;28;20046;-73
2023/09/26 11:25:31;;;;;;;2.08;1.98;;;;;;;;;;5000027;28;20411;-73
2023/09/26 11:27:57;;;;;;;2.80;1.98;;;;;;;;;;4999516;28;20042;-73
2023/09/26 11:30:22;;;;;;;3.20;1.98;;;;;;;;;;4999352;28;20526;-73
2023/09/26 11:32:54;;;;;;;2.78;2.13;;;;;;;;;;4999960;28;20419;-73
2023/09/26 11:35:21;;;;;;;4.95;2.47;;;;;;;;;;4999371;28;21269;-72
2023/09/26 11:37:53;;;;;;;3.83;2.10;;;;;;;;;;4997988;28;20052;-73
2023/09/26 11:40:27;;;;;;;2.85;2.20;;;;;;;;;;4994634;28;20053;-72
2023/09/26 11:42:55;;;;;;;11.30;3.22;;;;;;;;;;4999163;28;20525;-73
2023/09/26 11:45:27;;;;;;;3.22;2.40;;;;;;;;;;4998668;28;20136;-73
2023/09/26 11:47:54;;;;;;;2.80;2.55;;;;;;;;;;4997562;28;20083;-74
2023/09/26 11:50:20;;;;;;;3.25;2.40;;;;;;;;;;4995641;28;20757;-74
2023/09/26 11:52:47;;;;;;;2.83;2.63;;;;;;;;;;5015111;28;20072;-74
2023/09/26 11:55:18;;;;;;;2.25;2.13;;;;;;;;;;4997136;28;20093;-73
2023/09/26 11:57:49;;;;;;;2.97;2.13;;;;;;;;;;5014080;28;20040;-73
2023/09/26 12:00:16;;;;;;;3.53;2.40;;;;;;;;;;4997808;28;20689;-73
2023/09/26 12:02:46;;;;;;;3.42;2.10;;;;;;;;;;4998810;28;20041;-73
2023/09/26 12:05:13;;;;;;;3.13;2.22;;;;;;;;;;4997241;28;20088;-73
2023/09/26 12:07:41;;;;;;;2.70;2.17;;;;;;;;;;4998359;28;20993;-72
2023/09/26 12:10:08;;;;;;;4.50;2.05;;;;;;;;;;4997271;28;20045;-73
2023/09/26 12:12:34;;;;;;;3.30;2.40;;;;;;;;;;4996703;28;20053;-73
2023/09/26 12:15:19;;;;;;;5.65;2.50;;;;;;;;;;4998479;28;20053;-75
2023/09/26 12:17:46;;;;;;;6.40;2.38;;;;;;;;;;4999527;28;20107;-74
2023/09/26 12:20:13;;;;;;;6.30;2.15;;;;;;;;;;4998407;28;20046;-74
2023/09/26 12:22:39;;;;;;;2.42;2.20;;;;;;;;;;5000860;28;20045;-73
2023/09/26 12:25:05;;;;;;;2.78;2.28;;;;;;;;;;4999914;28;20059;-72
2023/09/26 12:27:30;;;;;;;2.50;2.25;;;;;;;;;;4999354;28;20606;-74
2023/09/26 12:29:56;;;;;;;4.30;2.40;;;;;;;;;;4997778;28;20171;-72
2023/09/26 12:32:21;;;;;;;3.83;2.20;;;;;;;;;;4997718;28;20049;-74
2023/09/26 12:34:46;;;;;;;3.42;2.17;;;;;;;;;;4999835;28;20121;-72
2023/09/26 12:37:12;;;;;;;4.55;2.15;;;;;;;;;;4996840;28;20541;-74
2023/09/26 12:39:37;;;;;;;2.72;2.45;;;;;;;;;;5013318;28;20053;-74
2023/09/26 12:42:03;;;;;;;3.88;2.35;;;;;;;;;;5013175;28;20050;-73
2023/09/26 12:44:28;;;;;;;3.00;2.30;;;;;;;;;;4999736;28;20045;-73
2023/09/26 12:46:54;;;;;;;3.15;2.22;;;;;;;;;;4996649;28;20050;-74
2023/09/26 12:49:26;;;;;;;3.33;2.55;;;;;;;;;;4996582;28;20428;-72
2023/09/26 12:51:51;;;;;;;4.15;2.67;;;;;;;;;;5007929;28;20237;-75
2023/09/26 12:54:17;;;;;;;2.60;2.40;;;;;;;;;;4993761;28;20517;-74
2023/09/26 12:56:42;;;;;;;2.40;2.10;;;;;;;;;;4993237;28;20042;-72
2023/09/26 12:59:08;;;;;;;2.90;2.47;;;;;;;;;;4993911;28;20516;-74
2023/09/26 13:01:34;;;;;;;2.60;2.40;;;;;;;;;;4993638;28;20046;-72
2023/09/26 13:03:59;;;;;;;3.05;2.40;;;;;;;;;;4992654;28;20104;-77
2023/09/26 13:06:25;;;;;;;3.45;2.67;;;;;;;;;;4992944;28;20720;-73
2023/09/26 13:08:50;;;;;;;3.15;2.30;;;;;;;;;;4993948;28;20060;-71
2023/09/26 13:11:16;;;;;;;4.22;2.80;;;;;;;;;;4992026;28;20049;-72
2023/09/26 13:13:41;;;;;;;5.75;3.10;;;;;;;;;;4975397;28;20060;-72
2023/09/26 13:16:07;;;;;;;3.25;2.42;;;;;;;;;;4991768;28;20048;-72
2023/09/26 13:18:33;;;;;;;3.40;2.78;;;;;;;;;;4993397;28;20423;-71
2023/09/26 13:20:58;;;;;;;4.40;2.90;;;;;;;;;;4991434;28;20061;-72
2023/09/26 13:23:24;;;;;;;6.35;3.13;;;;;;;;;;4994824;28;20037;-73
2023/09/26 13:25:50;;;;;;;3.95;2.60;;;;;;;;;;4994889;28;20542;-75
2023/09/26 13:28:15;;;;;;;3.05;2.58;;;;;;;;;;4993081;28;20042;-73
2023/09/26 13:30:41;;;;;;;4.78;2.33;;;;;;;;;;5008134;28;20117;-74
2023/09/26 13:33:06;;;;;;;3.65;2.47;;;;;;;;;;4992202;28;20141;-74
2023/09/26 13:35:32;;;;;;;2.47;2.15;;;;;;;;;;4994032;28;20088;-74
2023/09/26 13:37:57;;;;;;;6.00;2.80;;;;;;;;;;4993465;28;20041;-74
2023/09/26 13:40:23;;;;;;;4.95;3.40;;;;;;;;;;4986010;28;20795;-74
2023/09/26 13:42:49;;;;;;;4.10;3.00;;;;;;;;;;4994416;28;20225;-75
2023/09/26 13:45:15;;;;;;;3.67;2.80;;;;;;;;;;4994268;28;20068;-73
2023/09/26 13:47:40;;;;;;;3.08;2.78;;;;;;;;;;4993235;28;20057;-74
2023/09/26 13:50:06;;;;;;;3.92;3.10;;;;;;;;;;4993945;28;20050;-73
2023/09/26 13:52:32;;;;;;;9.65;3.20;;;;;;;;;;4993363;28;20050;-74
2023/09/26 13:54:57;;;;;;;3.55;3.25;;;;;;;;;;4994218;28;20960;-75
2023/09/26 13:57:23;;;;;;;4.60;3.40;;;;;;;;;;4994221;28;20046;-72
2023/09/26 13:59:50;;;;;;;4.68;3.42;;;;;;;;;;4984326;28;20053;-75
2023/09/26 14:02:15;;;;;;;4.22;3.50;;;;;;;;;;4978354;28;20042;-74
2023/09/26 14:04:42;;;;;;;5.88;3.08;;;;;;;;;;4980707;28;20046;-75
2023/09/26 14:07:09;;;;;;;3.72;3.30;;;;;;;;;;4980270;28;20068;-73
2023/09/26 14:09:35;;;;;;;4.90;3.40;;;;;;;;;;4980479;28;20072;-73
2023/09/26 14:12:03;;;;;;;3.78;3.40;;;;;;;;;;4993862;28;20042;-76
2023/09/26 14:14:29;;;;;;;4.50;2.85;;;;;;;;;;4981394;28;20503;-75
2023/09/26 14:16:54;;;;;;;5.55;3.38;;;;;;;;;;4980405;28;20065;-73
2023/09/26 14:19:20;;;;;;;4.88;3.22;;;;;;;;;;4980840;28;20499;-73
2023/09/26 14:21:46;;;;;;;4.60;3.05;;;;;;;;;;4995086;28;20046;-73
2023/09/26 14:24:11;;;;;;;4.47;3.58;;;;;;;;;;4980623;28;20054;-72
2023/09/26 14:26:36;;;;;;;4.93;3.83;;;;;;;;;;4981509;28;20041;-73
2023/09/26 14:29:02;;;;;;;6.07;3.42;;;;;;;;;;4994497;28;20088;-73
2023/09/26 14:31:28;;;;;;;4.80;3.63;;;;;;;;;;4979384;28;20106;-73
2023/09/26 14:33:54;;;;;;;4.78;3.58;;;;;;;;;;4979432;28;20065;-72